createdAt,value
2019-05-15T00:00:00.832Z,93.10
2019-05-15T00:02:32.823Z,93.20
2019-05-15T00:05:04.886Z,93.80
2019-05-15T00:07:39.239Z,94.20
2019-05-15T00:10:10.578Z,94.20
2019-05-15T00:12:42.463Z,94.30
2019-05-15T00:15:14.447Z,94.10
2019-05-15T00:17:48.338Z,94.40
2019-05-15T00:20:20.964Z,94.60
2019-05-15T00:22:52.917Z,95.00
2019-05-15T00:25:25.251Z,95.30
2019-05-15T00:27:58.259Z,95.60
2019-05-15T00:30:30.193Z,95.80
2019-05-15T00:33:02.301Z,96.10
2019-05-15T00:35:34.329Z,96.20
2019-05-15T00:38:09.042Z,96.40
2019-05-15T00:40:40.453Z,96.60
2019-05-15T00:43:12.869Z,96.60
2019-05-15T00:45:44.686Z,97.00
2019-05-15T00:48:18.355Z,97.40
2019-05-15T00:50:50.846Z,97.60
2019-05-15T00:53:22.758Z,97.90
2019-05-15T00:55:54.633Z,98.20
2019-05-15T00:58:28.355Z,98.20
2019-05-15T01:01:00.319Z,98.10
2019-05-15T01:03:32.592Z,98.10
2019-05-15T01:06:04.451Z,98.70
2019-05-15T01:08:36.340Z,99.40
2019-05-15T01:11:09.161Z,99.50
2019-05-15T01:13:41.797Z,99.50
2019-05-15T01:16:13.649Z,99.40
2019-05-15T01:18:46.209Z,99.30
2019-05-15T01:21:18.746Z,99.90
2019-05-15T01:23:50.848Z,99.90
2019-05-15T01:26:22.947Z,99.90
2019-05-15T01:28:55.282Z,99.90
2019-05-15T01:31:28.507Z,99.90
2019-05-15T01:34:00.865Z,99.90
2019-05-15T01:36:33.032Z,99.90
2019-05-15T01:39:05.342Z,99.90
2019-05-15T01:41:38.713Z,99.90
2019-05-15T01:44:11.117Z,99.90
2019-05-15T01:46:43.137Z,99.90
2019-05-15T01:49:15.346Z,99.90
2019-05-15T01:51:47.950Z,99.90
2019-05-15T01:54:20.227Z,99.90
2019-05-15T01:56:52.244Z,99.90
2019-05-15T01:59:24.778Z,99.90
2019-05-15T02:01:58.978Z,99.90
2019-05-15T02:04:30.599Z,99.90
2019-05-15T02:07:05.423Z,99.90
2019-05-15T02:09:38.564Z,99.90
2019-05-15T02:12:10.572Z,99.90
2019-05-15T02:14:42.658Z,99.90
2019-05-15T02:17:14.479Z,99.90
2019-05-15T02:19:48.445Z,99.90
2019-05-15T02:22:20.491Z,99.90
2019-05-15T02:24:52.796Z,99.90
2019-05-15T02:27:24.620Z,99.90
2019-05-15T02:30:15.272Z,99.90
2019-05-15T02:32:30.434Z,99.90
2019-05-15T02:35:02.574Z,99.90
2019-05-15T02:37:34.602Z,99.90
2019-05-15T02:40:09.667Z,99.90
2019-05-15T02:42:41.456Z,99.90
2019-05-15T02:45:13.505Z,99.90
2019-05-15T02:47:48.645Z,99.90
2019-05-15T02:50:20.408Z,99.90
2019-05-15T02:52:52.721Z,99.90
2019-05-15T02:55:24.639Z,99.90
2019-05-15T02:57:59.058Z,99.90
2019-05-15T03:00:41.760Z,99.90
2019-05-15T03:03:04.525Z,99.90
2019-05-15T03:05:40.275Z,99.90
2019-05-15T03:08:10.735Z,99.90
2019-05-15T03:10:42.530Z,99.90
2019-05-15T03:13:14.624Z,99.90
2019-05-15T03:15:48.965Z,99.90
2019-05-15T03:18:20.430Z,99.90
2019-05-15T03:20:52.946Z,99.90
2019-05-15T03:23:25.172Z,99.90
2019-05-15T03:26:02.015Z,99.90
2019-05-15T03:28:31.360Z,99.90
2019-05-15T03:31:17.861Z,99.90
2019-05-15T03:33:44.935Z,99.90
2019-05-15T03:36:13.812Z,99.90
2019-05-15T03:38:45.808Z,99.90
2019-05-15T03:41:19.477Z,99.90
2019-05-15T03:43:52.062Z,99.90
2019-05-15T03:46:23.884Z,99.90
2019-05-15T03:48:55.728Z,99.90
2019-05-15T03:51:28.957Z,99.90
2019-05-15T03:54:01.214Z,99.90
2019-05-15T03:56:33.333Z,99.90
2019-05-15T03:59:09.036Z,99.90
2019-05-15T04:01:43.694Z,99.90
2019-05-15T04:04:13.638Z,99.90
2019-05-15T04:06:45.525Z,99.90
2019-05-15T04:09:18.971Z,99.90
2019-05-15T04:11:51.223Z,99.90
2019-05-15T04:14:23.289Z,99.90
2019-05-15T04:16:55.559Z,99.90
2019-05-15T04:19:29.720Z,99.90
2019-05-15T04:22:01.443Z,99.90
2019-05-15T04:24:33.866Z,99.90
2019-05-15T04:27:10.476Z,99.90
2019-05-15T04:29:40.718Z,99.90
2019-05-15T04:32:12.596Z,99.90
2019-05-15T04:34:44.789Z,99.90
2019-05-15T04:37:18.965Z,99.90
2019-05-15T04:39:50.876Z,99.90
2019-05-15T04:42:22.896Z,99.90
2019-05-15T04:44:54.675Z,99.90
2019-05-15T04:47:29.923Z,99.90
2019-05-15T04:50:00.318Z,99.90
2019-05-15T04:52:32.324Z,99.90
2019-05-15T04:55:04.537Z,99.90
2019-05-15T04:57:40.046Z,99.90
2019-05-15T05:00:11.606Z,99.90
2019-05-15T05:02:43.668Z,99.90
2019-05-15T05:05:18.778Z,99.90
2019-05-15T05:07:49.593Z,99.90
2019-05-15T05:10:21.516Z,99.90
2019-05-15T05:12:53.827Z,99.90
2019-05-15T05:15:25.569Z,99.90
2019-05-15T05:17:58.570Z,99.90
2019-05-15T05:20:30.824Z,99.90
2019-05-15T05:23:02.876Z,99.90
2019-05-15T05:25:34.733Z,99.90
2019-05-15T05:28:08.581Z,99.90
2019-05-15T05:30:40.427Z,99.90
2019-05-15T05:33:12.432Z,99.90
2019-05-15T05:35:44.570Z,99.90
2019-05-15T05:38:19.236Z,99.90
2019-05-15T05:40:50.366Z,99.90
2019-05-15T05:43:22.397Z,99.90
2019-05-15T05:45:54.317Z,99.90
2019-05-15T05:48:29.097Z,99.90
2019-05-15T05:51:00.328Z,99.90
2019-05-15T05:53:32.777Z,99.90
2019-05-15T05:56:04.788Z,99.90
2019-05-15T05:58:38.980Z,99.90
2019-05-15T06:01:10.604Z,99.90
2019-05-15T06:03:42.691Z,99.90
2019-05-15T06:06:14.529Z,99.90
2019-05-15T06:08:48.019Z,99.90
2019-05-15T06:11:20.743Z,99.90
2019-05-15T06:13:52.865Z,99.90
2019-05-15T06:16:24.732Z,99.90
2019-05-15T06:18:58.671Z,99.90
2019-05-15T06:21:30.886Z,99.90
2019-05-15T06:24:05.228Z,99.90
2019-05-15T06:26:38.574Z,99.90
2019-05-15T06:29:10.663Z,99.90
2019-05-15T06:31:42.495Z,99.90
2019-05-15T06:34:14.572Z,99.90
2019-05-15T06:36:48.601Z,99.90
2019-05-15T06:39:20.534Z,99.40
2019-05-15T06:41:52.375Z,99.60
2019-05-15T06:44:24.116Z,99.10
2019-05-15T06:46:58.585Z,99.80
2019-05-15T06:49:30.029Z,99.30
2019-05-15T06:52:01.914Z,98.80
2019-05-15T06:54:33.667Z,98.10
2019-05-15T06:57:05.539Z,98.10
2019-05-15T06:59:38.909Z,97.80
2019-05-15T07:02:11.104Z,96.70
2019-05-15T07:04:43.051Z,96.80
2019-05-15T07:07:15.286Z,96.50
2019-05-15T07:09:48.619Z,95.40
2019-05-15T07:12:20.996Z,95.40
2019-05-15T07:14:53.107Z,95.80
2019-05-15T07:17:25.212Z,95.20
2019-05-15T07:19:59.178Z,94.80
2019-05-15T07:22:30.939Z,94.00
2019-05-15T07:25:03.085Z,93.70
2019-05-15T07:27:34.933Z,93.90
2019-05-15T07:30:12.054Z,93.60
2019-05-15T07:32:43.099Z,93.40
2019-05-15T07:35:15.356Z,93.10
2019-05-15T07:37:47.856Z,92.80
2019-05-15T07:40:20.821Z,87.80
2019-05-15T07:42:53.034Z,85.00
2019-05-15T07:45:25.022Z,83.20
2019-05-15T07:47:58.488Z,82.40
2019-05-15T07:50:30.598Z,80.60
2019-05-15T07:53:03.088Z,80.00
2019-05-15T07:55:34.970Z,78.90
2019-05-15T07:58:08.540Z,76.70
2019-05-15T08:00:40.933Z,75.40
2019-05-15T08:03:12.716Z,73.60
2019-05-15T08:05:56.172Z,72.10
2019-05-15T08:08:20.351Z,72.90
2019-05-15T08:10:52.484Z,71.30
2019-05-15T08:13:24.766Z,71.60
2019-05-15T08:15:58.004Z,71.50
2019-05-15T08:18:30.115Z,72.10
2019-05-15T08:21:02.030Z,71.50
2019-05-15T08:23:33.968Z,71.80
2019-05-15T08:26:05.833Z,70.50
2019-05-15T08:28:38.579Z,70.10
2019-05-15T08:31:10.637Z,69.40
2019-05-15T08:33:43.723Z,69.20
2019-05-15T08:36:15.558Z,67.40
2019-05-15T08:38:48.647Z,68.50
2019-05-15T08:41:20.703Z,69.50
2019-05-15T08:43:53.217Z,70.00
2019-05-15T08:46:27.863Z,69.40
2019-05-15T08:48:59.448Z,66.80
2019-05-15T08:51:31.554Z,65.10
2019-05-15T08:54:03.564Z,64.80
2019-05-15T08:56:35.608Z,64.00
2019-05-15T08:59:08.821Z,63.70
2019-05-15T09:01:40.821Z,62.50
2019-05-15T09:04:26.668Z,63.00
2019-05-15T09:06:49.455Z,63.80
2019-05-15T09:09:20.468Z,61.80
2019-05-15T09:11:52.372Z,62.50
2019-05-15T09:14:24.297Z,62.50
2019-05-15T09:16:58.243Z,63.10
2019-05-15T09:19:32.258Z,66.30
2019-05-15T09:22:04.320Z,67.80
2019-05-15T09:24:37.925Z,69.30
2019-05-15T09:27:10.439Z,69.60
2019-05-15T09:29:42.393Z,68.60
2019-05-15T09:32:14.456Z,66.30
2019-05-15T09:34:51.765Z,64.50
2019-05-15T09:37:20.076Z,64.10
2019-05-15T09:39:52.246Z,63.60
2019-05-15T09:42:24.190Z,64.10
2019-05-15T09:44:58.210Z,63.90
2019-05-15T09:47:30.025Z,64.40
2019-05-15T09:50:02.027Z,66.20
2019-05-15T09:52:33.819Z,66.90
2019-05-15T09:55:08.615Z,67.10
2019-05-15T09:57:40.181Z,65.00
2019-05-15T10:00:12.768Z,63.70
2019-05-15T10:02:45.003Z,63.80
2019-05-15T10:05:18.737Z,65.00
2019-05-15T10:07:50.927Z,65.40
2019-05-15T10:10:22.830Z,66.80
2019-05-15T10:12:54.742Z,65.20
2019-05-15T10:15:26.908Z,65.20
2019-05-15T10:17:59.683Z,65.80
2019-05-15T10:20:32.058Z,66.20
2019-05-15T10:23:03.998Z,66.10
2019-05-15T10:25:36.028Z,66.30
2019-05-15T10:28:09.955Z,66.90
2019-05-15T10:30:42.456Z,67.70
2019-05-15T10:33:14.533Z,68.60
2019-05-15T10:35:46.675Z,67.90
2019-05-15T10:38:19.373Z,67.50
2019-05-15T10:41:03.865Z,70.00
2019-05-15T10:43:25.633Z,70.70
2019-05-15T10:45:58.771Z,70.10
2019-05-15T10:48:30.751Z,70.00
2019-05-15T10:51:07.307Z,70.50
2019-05-15T10:53:38.944Z,69.20
2019-05-15T10:56:10.992Z,69.00
2019-05-15T10:58:42.833Z,68.40
2019-05-15T11:01:14.738Z,68.20
2019-05-15T11:03:49.264Z,67.10
2019-05-15T11:06:20.995Z,67.00
2019-05-15T11:08:52.878Z,66.80
2019-05-15T11:11:24.763Z,66.60
2019-05-15T11:14:00.233Z,66.00
2019-05-15T11:16:30.367Z,64.10
2019-05-15T11:19:02.303Z,63.90
2019-05-15T11:21:34.254Z,65.00
2019-05-15T11:24:08.607Z,65.70
2019-05-15T11:26:40.154Z,65.80
2019-05-15T11:29:11.910Z,65.50
2019-05-15T11:31:43.733Z,65.30
2019-05-15T11:34:18.398Z,64.80
2019-05-15T11:36:49.654Z,65.70
2019-05-15T11:39:21.475Z,65.90
2019-05-15T11:41:53.470Z,66.10
2019-05-15T11:44:25.195Z,66.80
2019-05-15T11:46:58.616Z,66.50
2019-05-15T11:49:31.188Z,65.60
2019-05-15T11:52:03.295Z,65.10
2019-05-15T11:54:35.267Z,64.90
2019-05-15T11:57:08.609Z,65.40
2019-05-15T11:59:45.213Z,65.20
2019-05-15T12:02:14.481Z,65.00
2019-05-15T12:04:46.284Z,64.20
2019-05-15T12:07:18.377Z,64.90
2019-05-15T12:09:50.658Z,64.90
2019-05-15T12:12:22.859Z,64.10
2019-05-15T12:14:55.083Z,64.70
2019-05-15T12:17:28.519Z,64.50
2019-05-15T12:20:05.758Z,64.40
2019-05-15T12:22:34.350Z,63.40
2019-05-15T12:25:09.708Z,63.10
2019-05-15T12:27:41.549Z,62.20
2019-05-15T12:30:13.911Z,61.20
2019-05-15T12:32:49.027Z,60.50
2019-05-15T12:35:20.645Z,60.70
2019-05-15T12:37:53.121Z,60.50
2019-05-15T13:00:57.881Z,59.80
2019-05-15T13:03:30.013Z,60.00
2019-05-15T13:06:01.907Z,60.90
2019-05-15T13:08:33.904Z,62.50
2019-05-15T13:11:10.061Z,64.70
2019-05-15T13:13:39.775Z,64.90
2019-05-15T13:16:11.912Z,64.90
2019-05-15T13:18:43.888Z,64.90
2019-05-15T13:21:20.589Z,66.80
2019-05-15T13:23:50.381Z,66.80
2019-05-15T13:26:26.671Z,66.90
2019-05-15T13:28:58.364Z,68.20
2019-05-15T13:31:30.533Z,69.20
2019-05-15T13:34:03.783Z,71.30
2019-05-15T13:36:35.720Z,74.10
2019-05-15T13:39:09.197Z,78.00
2019-05-15T13:41:41.371Z,80.40
2019-05-15T13:44:13.237Z,82.40
2019-05-15T13:46:45.385Z,86.00
2019-05-15T13:49:18.721Z,90.90
2019-05-15T13:51:50.867Z,93.10
2019-05-15T13:54:28.613Z,94.80
2019-05-15T13:57:00.622Z,95.10
2019-05-15T13:59:32.705Z,94.40
2019-05-15T14:02:04.532Z,94.50
2019-05-15T14:04:38.674Z,94.90
2019-05-15T14:07:10.612Z,95.80
2019-05-15T14:09:44.662Z,95.60
2019-05-15T14:12:17.971Z,95.40
2019-05-15T14:14:53.165Z,95.80
2019-05-15T14:17:28.691Z,95.30
2019-05-15T14:20:00.606Z,95.30
2019-05-15T14:22:33.120Z,95.30
2019-05-15T14:25:08.585Z,94.90
2019-05-15T14:27:40.285Z,95.10
2019-05-15T14:30:13.068Z,94.30
2019-05-15T14:32:45.001Z,94.20
2019-05-15T14:35:18.565Z,93.50
2019-05-15T14:38:02.516Z,93.00
2019-05-15T14:40:24.807Z,93.80
2019-05-15T14:42:59.166Z,92.60
2019-05-15T14:45:30.528Z,92.80
2019-05-15T14:48:02.887Z,92.40
2019-05-15T14:50:34.764Z,92.30
2019-05-15T14:53:09.298Z,91.90
2019-05-15T14:55:43.995Z,92.00
2019-05-15T14:58:14.280Z,91.60
2019-05-15T15:00:49.732Z,91.60
2019-05-15T15:03:20.147Z,91.90
2019-05-15T15:05:52.083Z,92.40
2019-05-15T15:08:25.321Z,91.80
2019-05-15T15:10:59.412Z,91.40
2019-05-15T15:13:32.269Z,91.10
2019-05-15T15:16:04.488Z,90.80
2019-05-15T15:18:38.451Z,90.90
2019-05-15T15:21:10.130Z,90.00
2019-05-15T15:23:42.319Z,90.20
2019-05-15T15:26:14.444Z,90.80
2019-05-15T15:28:48.895Z,91.20
2019-05-15T15:31:20.195Z,90.30
2019-05-15T15:33:52.229Z,90.80
2019-05-15T15:36:24.416Z,90.30
2019-05-15T15:38:58.638Z,89.70
2019-05-15T15:41:30.395Z,90.00
2019-05-15T15:44:02.604Z,90.00
2019-05-15T15:46:34.781Z,89.70
2019-05-15T15:49:08.791Z,90.00
2019-05-15T15:51:40.443Z,89.80
2019-05-15T15:54:12.549Z,89.60
2019-05-15T15:56:44.778Z,89.70
2019-05-15T15:59:18.210Z,90.10
2019-05-15T16:01:50.723Z,88.40
2019-05-15T16:04:23.257Z,89.20
2019-05-15T16:06:55.320Z,89.60
2019-05-15T16:09:28.132Z,87.70
2019-05-15T16:12:00.556Z,87.00
2019-05-15T16:14:32.739Z,87.40
2019-05-15T16:17:04.744Z,86.50
2019-05-15T16:19:38.887Z,85.80
2019-05-15T16:22:10.775Z,86.30
2019-05-15T16:24:42.861Z,86.30
2019-05-15T16:27:15.416Z,87.40
2019-05-15T16:29:47.552Z,88.90
2019-05-15T16:32:21.891Z,89.30
2019-05-15T16:34:53.348Z,90.20
2019-05-15T16:37:25.384Z,90.30
2019-05-15T16:39:59.873Z,91.00
2019-05-15T16:42:31.516Z,91.10
2019-05-15T16:45:03.831Z,91.40
2019-05-15T16:47:35.712Z,91.70
2019-05-15T16:50:08.146Z,91.50
2019-05-15T16:52:39.897Z,91.70
2019-05-15T16:55:11.965Z,92.30
2019-05-15T16:57:44.143Z,92.80
2019-05-15T17:00:18.697Z,93.00
2019-05-15T17:03:08.196Z,92.80
2019-05-15T17:05:25.336Z,92.90
2019-05-15T17:07:58.349Z,92.90
2019-05-15T17:10:30.245Z,93.00
2019-05-15T17:13:02.099Z,93.00
2019-05-15T17:15:34.166Z,93.30
2019-05-15T17:18:05.900Z,93.70
2019-05-15T17:20:38.029Z,93.90
2019-05-15T17:23:10.128Z,94.30
2019-05-15T17:25:42.392Z,94.20
2019-05-15T17:28:14.417Z,94.50
2019-05-15T17:30:48.865Z,94.50
2019-05-15T17:33:20.706Z,94.80
2019-05-15T17:35:52.800Z,95.00
2019-05-15T17:38:24.953Z,95.20
2019-05-15T17:40:57.864Z,95.40
2019-05-15T17:43:29.966Z,96.10
2019-05-15T17:46:01.773Z,96.70
2019-05-15T17:48:33.783Z,98.60
2019-05-15T17:51:05.918Z,99.90
2019-05-15T17:53:38.453Z,99.90
2019-05-15T17:56:10.269Z,99.90
2019-05-15T17:58:42.102Z,99.90
2019-05-15T18:01:14.072Z,99.90
2019-05-15T18:03:48.456Z,99.90
2019-05-15T18:06:20.294Z,99.90
2019-05-15T18:08:52.395Z,99.90
2019-05-15T18:11:24.152Z,99.90
2019-05-15T18:13:58.051Z,99.90
2019-05-15T18:16:29.870Z,99.90
2019-05-15T18:19:02.247Z,99.90
2019-05-15T18:21:34.316Z,99.90
2019-05-15T18:24:09.240Z,99.90
2019-05-15T18:26:41.526Z,99.90
2019-05-15T18:29:13.515Z,99.90
2019-05-15T18:31:47.912Z,99.90
2019-05-15T18:34:19.736Z,99.90
2019-05-15T18:36:51.561Z,99.90
2019-05-15T18:39:23.665Z,99.90
2019-05-15T18:41:57.744Z,99.90
2019-05-15T18:44:29.718Z,99.90
2019-05-15T18:47:01.870Z,99.90
2019-05-15T18:49:34.499Z,99.90
2019-05-15T18:52:08.634Z,99.90
2019-05-15T18:54:40.453Z,99.90
2019-05-15T18:57:12.715Z,99.90
2019-05-15T18:59:45.172Z,99.90
2019-05-15T19:02:19.205Z,99.90
2019-05-15T19:04:51.265Z,99.90
2019-05-15T19:07:23.192Z,99.90
2019-05-15T19:09:55.805Z,99.90
2019-05-15T19:12:28.287Z,99.90
2019-05-15T19:15:00.788Z,99.90
2019-05-15T19:17:33.204Z,99.90
2019-05-15T19:20:05.390Z,99.90
2019-05-15T19:22:40.835Z,99.90
2019-05-15T19:25:12.796Z,99.90
2019-05-15T19:27:45.374Z,99.90
2019-05-15T19:30:19.005Z,99.90
2019-05-15T19:32:51.158Z,99.90
2019-05-15T19:35:23.706Z,99.90
2019-05-15T19:37:58.237Z,99.90
2019-05-15T19:40:29.473Z,99.90
2019-05-15T19:43:03.994Z,99.90
2019-05-15T19:45:35.878Z,99.90
2019-05-15T19:48:08.997Z,99.90
2019-05-15T19:50:41.000Z,99.90
2019-05-15T19:53:14.340Z,99.90
2019-05-15T19:55:48.378Z,99.90
2019-05-15T19:58:20.709Z,99.90
2019-05-15T20:00:52.717Z,99.90
2019-05-15T20:03:24.881Z,99.90
2019-05-15T20:05:57.698Z,99.90
2019-05-15T20:08:30.384Z,99.90
2019-05-15T20:11:02.801Z,99.90
2019-05-15T20:13:34.907Z,99.90
2019-05-15T20:16:07.694Z,99.90
2019-05-15T20:18:43.277Z,99.90
2019-05-15T20:21:15.643Z,99.90
2019-05-15T20:23:48.896Z,99.90
2019-05-15T20:26:21.184Z,99.90
2019-05-15T20:28:53.799Z,99.90
2019-05-15T20:31:28.250Z,99.90
2019-05-15T20:34:05.636Z,99.90
2019-05-15T20:36:34.215Z,99.90
2019-05-15T20:39:08.283Z,99.90
2019-05-15T20:41:40.537Z,99.90
2019-05-15T20:44:12.556Z,99.90
2019-05-15T20:46:48.404Z,99.90
2019-05-15T20:49:19.548Z,99.90
2019-05-15T20:51:51.871Z,99.90
2019-05-15T20:54:23.691Z,99.90
2019-05-15T20:56:58.151Z,99.90
2019-05-15T20:59:30.221Z,99.90
2019-05-15T21:02:02.237Z,99.90
2019-05-15T21:04:34.664Z,99.90
2019-05-15T21:07:07.878Z,99.90
2019-05-15T21:09:40.378Z,99.90
2019-05-15T21:12:12.554Z,99.90
2019-05-15T21:14:44.715Z,99.90
2019-05-15T21:17:19.945Z,99.90
2019-05-15T21:19:51.561Z,99.90
2019-05-15T21:22:23.885Z,99.90
2019-05-15T21:24:55.633Z,99.90
2019-05-15T21:27:32.561Z,99.90
2019-05-15T21:30:01.849Z,99.90
2019-05-15T21:32:34.077Z,99.90
2019-05-15T21:35:08.775Z,99.90
2019-05-15T21:37:40.602Z,99.90
2019-05-15T21:40:12.984Z,99.90
2019-05-15T21:42:45.649Z,99.90
2019-05-15T21:45:18.312Z,99.90
2019-05-15T21:47:50.701Z,99.70
2019-05-15T21:50:22.701Z,99.90
2019-05-15T21:52:54.690Z,99.90
2019-05-15T21:55:28.847Z,99.90
2019-05-15T21:58:01.049Z,99.90
2019-05-15T22:00:38.241Z,99.90
2019-05-15T22:03:11.829Z,99.90
2019-05-15T22:05:43.699Z,99.90
2019-05-15T22:08:18.200Z,99.90
2019-05-15T22:10:50.245Z,99.90
2019-05-15T22:13:22.059Z,99.90
2019-05-15T22:15:54.039Z,99.90
2019-05-15T22:18:27.940Z,99.90
2019-05-15T22:20:59.654Z,99.90
2019-05-15T22:23:31.855Z,99.90
2019-05-15T22:26:04.016Z,99.90
2019-05-15T22:28:38.447Z,99.90
2019-05-15T22:31:10.513Z,99.90
2019-05-15T22:33:42.435Z,99.90
2019-05-15T22:36:14.839Z,99.90
2019-05-15T22:38:48.301Z,99.90
2019-05-15T22:41:20.649Z,99.90
2019-05-15T22:43:52.806Z,99.90
2019-05-15T22:46:24.792Z,99.90
2019-05-15T22:48:59.028Z,99.90
2019-05-15T22:51:30.810Z,99.90
2019-05-15T22:54:03.008Z,99.90
2019-05-15T22:56:35.093Z,99.90
2019-05-15T22:59:08.567Z,99.90
2019-05-15T23:01:40.581Z,99.90
2019-05-15T23:04:12.761Z,99.90
2019-05-15T23:06:45.028Z,99.90
2019-05-15T23:09:17.385Z,99.90
2019-05-15T23:11:49.310Z,99.90
2019-05-15T23:14:21.368Z,99.90
2019-05-15T23:16:53.738Z,99.90
2019-05-15T23:19:27.953Z,99.90
2019-05-15T23:21:59.668Z,99.90
2019-05-15T23:24:31.835Z,99.90
2019-05-15T23:27:03.704Z,99.90
2019-05-15T23:29:38.335Z,99.90
2019-05-15T23:32:09.738Z,99.90
2019-05-15T23:34:41.617Z,99.90
2019-05-15T23:37:13.765Z,99.90
2019-05-15T23:39:45.560Z,99.90
2019-05-15T23:42:18.471Z,99.90
2019-05-15T23:44:50.720Z,99.90
2019-05-15T23:47:23.023Z,99.90
2019-05-15T23:49:54.854Z,99.90
2019-05-15T23:52:26.828Z,99.90
2019-05-15T23:54:58.995Z,99.90
2019-05-15T23:57:31.079Z,99.90
